Time;durP1;ratioP1;P1;durP2;ratioP2;P2;SDS_P1;SDS_P2;PMS_P1;PMS_P2;Temp;Humidity;BMP_temperature;BMP_pressure;BME280_temperature;BME280_humidity;BME280_pressure;Samples;Min_cycle;Max_cycle;Signal;HPM_P1;HPM_P2
2022/11/15 00:01:09;;;;;;;47.50;23.90;;;;;;;;;;6183294;23;20049;-67
2022/11/15 00:03:35;;;;;;;41.72;21.05;;;;;;;;;;6183158;23;20068;-67
2022/11/15 00:06:04;;;;;;;47.70;22.90;;;;;;;;;;6183716;23;20135;-67
2022/11/15 00:08:31;;;;;;;45.78;23.63;;;;;;;;;;6186425;23;20013;-67
2022/11/15 00:10:58;;;;;;;42.42;22.58;;;;;;;;;;6184950;23;20040;-68
2022/11/15 00:13:24;;;;;;;44.50;23.60;;;;;;;;;;6185012;23;20418;-66
2022/11/15 00:15:50;;;;;;;48.88;23.00;;;;;;;;;;6160031;23;20045;-67
2022/11/15 00:18:16;;;;;;;43.90;22.58;;;;;;;;;;6184761;23;20388;-67
2022/11/15 00:20:42;;;;;;;47.38;23.15;;;;;;;;;;6186382;23;20013;-67
2022/11/15 00:23:08;;;;;;;45.60;22.42;;;;;;;;;;6196015;23;20024;-67
2022/11/15 00:25:35;;;;;;;49.80;23.67;;;;;;;;;;6247061;23;20082;-66
2022/11/15 00:28:01;;;;;;;44.15;22.17;;;;;;;;;;6219776;23;20015;-66
2022/11/15 00:30:28;;;;;;;49.65;23.98;;;;;;;;;;6219833;23;20074;-67
2022/11/15 00:32:54;;;;;;;48.38;22.55;;;;;;;;;;6246799;23;20012;-67
2022/11/15 00:35:20;;;;;;;49.00;22.65;;;;;;;;;;6194595;23;20378;-66
2022/11/15 00:37:47;;;;;;;46.75;22.27;;;;;;;;;;6219782;23;20012;-67
2022/11/15 00:40:13;;;;;;;44.60;22.25;;;;;;;;;;6219640;23;20024;-67
2022/11/15 00:42:39;;;;;;;49.65;22.85;;;;;;;;;;6219746;23;20443;-67
2022/11/15 00:45:05;;;;;;;49.50;23.30;;;;;;;;;;6246624;23;20019;-67
2022/11/15 00:47:32;;;;;;;47.53;23.80;;;;;;;;;;6246348;23;20016;-67
2022/11/15 00:49:58;;;;;;;41.38;22.02;;;;;;;;;;6219396;23;20027;-67
2022/11/15 00:52:24;;;;;;;42.30;23.05;;;;;;;;;;6194478;23;20393;-67
2022/11/15 00:54:50;;;;;;;46.63;22.63;;;;;;;;;;6219844;23;20012;-67
2022/11/15 00:57:16;;;;;;;44.47;22.77;;;;;;;;;;6246417;23;20020;-67
2022/11/15 00:59:42;;;;;;;47.33;22.38;;;;;;;;;;6246469;23;20016;-67
2022/11/15 01:02:08;;;;;;;42.95;21.70;;;;;;;;;;6246418;23;20016;-67
2022/11/15 01:04:34;;;;;;;41.97;22.27;;;;;;;;;;6219529;23;20039;-67
2022/11/15 01:07:00;;;;;;;44.92;23.50;;;;;;;;;;6219531;23;20055;-67
2022/11/15 01:09:26;;;;;;;42.63;22.25;;;;;;;;;;6219289;23;20020;-67
2022/11/15 01:11:53;;;;;;;51.05;24.33;;;;;;;;;;6219466;23;20442;-67
2022/11/15 01:14:19;;;;;;;49.90;23.15;;;;;;;;;;6246006;23;20390;-67
2022/11/15 01:16:45;;;;;;;48.50;24.70;;;;;;;;;;6245927;23;20012;-67
2022/11/15 01:19:11;;;;;;;43.40;22.17;;;;;;;;;;6219110;23;20094;-67
2022/11/15 01:21:37;;;;;;;42.10;22.25;;;;;;;;;;6219279;23;20016;-67
2022/11/15 01:24:03;;;;;;;42.78;22.75;;;;;;;;;;6219164;23;20020;-67
2022/11/15 01:26:29;;;;;;;45.95;23.33;;;;;;;;;;6219505;23;20064;-67
2022/11/15 01:28:55;;;;;;;47.85;23.92;;;;;;;;;;6245800;23;20469;-67
2022/11/15 01:31:21;;;;;;;49.42;24.67;;;;;;;;;;6219313;23;20316;-67
2022/11/15 01:33:48;;;;;;;49.35;25.30;;;;;;;;;;6246380;23;20091;-67
2022/11/15 01:36:16;;;;;;;54.33;25.13;;;;;;;;;;6246082;23;20012;-66
2022/11/15 01:38:43;;;;;;;46.95;24.55;;;;;;;;;;6219659;23;20047;-67
2022/11/15 01:41:19;;;;;;;51.35;24.67;;;;;;;;;;6193953;23;20077;-67
2022/11/15 01:43:47;;;;;;;47.55;23.08;;;;;;;;;;6218998;23;20016;-67
2022/11/15 01:46:22;;;;;;;48.80;25.20;;;;;;;;;;6219085;23;20140;-66
2022/11/15 01:48:49;;;;;;;45.17;24.75;;;;;;;;;;6219003;23;20047;-67
2022/11/15 01:51:17;;;;;;;47.13;25.65;;;;;;;;;;6245823;23;20012;-67
2022/11/15 01:53:44;;;;;;;44.28;23.50;;;;;;;;;;6245771;23;20383;-66
2022/11/15 01:56:14;;;;;;;49.65;26.58;;;;;;;;;;6218982;23;20098;-66
2022/11/15 01:58:41;;;;;;;50.80;25.30;;;;;;;;;;6219004;23;20016;-66
2022/11/15 02:01:08;;;;;;;52.80;25.02;;;;;;;;;;6218855;23;20020;-66
2022/11/15 02:03:38;;;;;;;50.05;25.58;;;;;;;;;;6218936;23;20088;-66
2022/11/15 02:06:05;;;;;;;51.40;24.40;;;;;;;;;;6245723;23;20012;-67
2022/11/15 02:08:31;;;;;;;53.20;26.25;;;;;;;;;;6218642;23;20027;-67
2022/11/15 02:10:57;;;;;;;50.30;25.27;;;;;;;;;;6219085;23;20016;-66
2022/11/15 02:13:24;;;;;;;54.55;26.08;;;;;;;;;;6245643;23;20017;-67
2022/11/15 02:16:08;;;;;;;57.53;26.27;;;;;;;;;;6218742;23;20020;-66
2022/11/15 02:18:36;;;;;;;54.33;26.48;;;;;;;;;;6218655;23;20023;-67
2022/11/15 02:21:02;;;;;;;48.90;23.85;;;;;;;;;;6245758;23;20087;-67
2022/11/15 02:23:31;;;;;;;51.95;24.38;;;;;;;;;;6245351;23;20016;-67
2022/11/15 02:26:00;;;;;;;51.45;24.45;;;;;;;;;;6218579;23;20012;-66
2022/11/15 02:28:26;;;;;;;52.53;25.30;;;;;;;;;;6218559;23;20024;-66
2022/11/15 02:31:01;;;;;;;54.47;23.85;;;;;;;;;;6218611;23;20016;-67
2022/11/15 02:33:45;;;;;;;49.47;21.98;;;;;;;;;;6218764;23;20016;-67
2022/11/15 02:36:15;;;;;;;49.45;22.77;;;;;;;;;;6218602;23;20541;-67
2022/11/15 02:38:47;;;;;;;48.78;22.95;;;;;;;;;;6218684;23;20469;-67
2022/11/15 02:41:16;;;;;;;48.42;23.55;;;;;;;;;;6245488;23;20078;-67
2022/11/15 02:43:57;;;;;;;54.38;24.38;;;;;;;;;;6218509;23;20111;-67
2022/11/15 02:47:12;;;;;;;51.25;23.92;;;;;;;;;;6218601;23;20016;-67
2022/11/15 02:49:13;;;;;;;47.85;23.38;;;;;;;;;;6245119;23;20023;-67
2022/11/15 02:51:40;;;;;;;55.88;22.85;;;;;;;;;;6218478;23;20020;-67
2022/11/15 02:54:06;;;;;;;49.72;23.48;;;;;;;;;;6245405;23;20059;-67
2022/11/15 02:56:32;;;;;;;54.65;24.10;;;;;;;;;;6245657;23;20062;-67
2022/11/15 02:59:08;;;;;;;53.63;22.45;;;;;;;;;;6218959;23;20042;-67
2022/11/15 03:02:10;;;;;;;56.17;23.92;;;;;;;;;;6218672;23;20070;-66
2022/11/15 03:04:49;;;;;;;54.25;24.50;;;;;;;;;;6098702;23;20021;-67
2022/11/15 03:07:30;;;;;;;60.00;24.38;;;;;;;;;;6232187;23;20337;-66
2022/11/15 03:10:09;;;;;;;58.72;25.48;;;;;;;;;;6218472;23;20020;-66
2022/11/15 03:12:44;;;;;;;60.38;25.42;;;;;;;;;;6245189;23;20043;-67
2022/11/15 03:15:12;;;;;;;66.40;25.88;;;;;;;;;;6245236;23;20078;-67
2022/11/15 03:17:41;;;;;;;63.45;25.67;;;;;;;;;;6218284;23;20012;-66
2022/11/15 03:20:08;;;;;;;70.13;25.10;;;;;;;;;;6245331;23;20043;-66
2022/11/15 03:22:37;;;;;;;64.78;25.92;;;;;;;;;;6218424;23;20447;-66
2022/11/15 03:25:05;;;;;;;68.10;25.77;;;;;;;;;;6193136;23;20462;-66
2022/11/15 03:27:33;;;;;;;67.75;24.73;;;;;;;;;;6218314;23;20024;-66
2022/11/15 03:30:01;;;;;;;69.00;27.17;;;;;;;;;;6218363;23;20031;-66
2022/11/15 03:32:29;;;;;;;66.18;26.55;;;;;;;;;;6193169;23;20012;-66
2022/11/15 03:35:01;;;;;;;72.45;26.83;;;;;;;;;;6218247;23;20087;-66
2022/11/15 03:37:50;;;;;;;69.60;27.17;;;;;;;;;;6218167;23;20016;-66
2022/11/15 03:40:17;;;;;;;72.55;24.67;;;;;;;;;;6229510;23;20012;-66
2022/11/15 03:42:47;;;;;;;67.95;26.17;;;;;;;;;;6246868;23;20086;-65
2022/11/15 03:45:18;;;;;;;77.28;25.70;;;;;;;;;;6219803;23;20083;-67
2022/11/15 03:47:48;;;;;;;81.03;26.85;;;;;;;;;;6218402;23;20016;-66
2022/11/15 03:50:17;;;;;;;77.68;28.42;;;;;;;;;;6219672;23;20052;-67
2022/11/15 03:52:45;;;;;;;73.75;26.30;;;;;;;;;;6220019;23;20074;-67
2022/11/15 03:55:13;;;;;;;83.95;26.73;;;;;;;;;;6247181;23;20391;-67
2022/11/15 03:57:39;;;;;;;72.97;26.42;;;;;;;;;;6220031;23;20481;-67
2022/11/15 04:00:06;;;;;;;79.07;26.63;;;;;;;;;;6246905;23;20059;-67
2022/11/15 04:02:32;;;;;;;81.80;26.60;;;;;;;;;;6246797;23;20477;-67
2022/11/15 04:04:58;;;;;;;73.45;26.10;;;;;;;;;;6219972;23;20012;-67
2022/11/15 04:07:24;;;;;;;78.35;27.42;;;;;;;;;;6220172;23;20020;-67
2022/11/15 04:10:02;;;;;;;72.00;26.02;;;;;;;;;;6246840;22;20012;-66
2022/11/15 04:12:32;;;;;;;85.35;27.88;;;;;;;;;;6220032;23;20024;-67
2022/11/15 04:15:08;;;;;;;69.35;25.55;;;;;;;;;;6219892;23;20016;-67
2022/11/15 04:17:35;;;;;;;72.35;24.42;;;;;;;;;;6219875;23;20016;-67
2022/11/15 04:25:30;;;;;;;80.90;26.52;;;;;;;;;;6219795;23;20451;-67
2022/11/15 04:27:56;;;;;;;71.32;26.08;;;;;;;;;;6219839;23;20020;-67
2022/11/15 04:30:23;;;;;;;79.03;26.20;;;;;;;;;;6246637;23;20402;-67
2022/11/15 04:32:49;;;;;;;75.63;25.65;;;;;;;;;;6194831;23;20090;-67
2022/11/15 04:35:15;;;;;;;74.00;25.77;;;;;;;;;;6219849;23;20091;-67
2022/11/15 04:37:41;;;;;;;77.30;24.30;;;;;;;;;;6246579;23;20464;-67
2022/11/15 04:40:07;;;;;;;73.70;25.88;;;;;;;;;;6247034;23;20035;-67
2022/11/15 04:42:33;;;;;;;68.38;24.52;;;;;;;;;;6246601;23;20012;-67
2022/11/15 04:44:59;;;;;;;69.43;25.35;;;;;;;;;;6246622;23;20048;-67
2022/11/15 04:47:27;;;;;;;60.95;24.73;;;;;;;;;;6247123;23;20012;-67
2022/11/15 04:49:53;;;;;;;62.38;24.60;;;;;;;;;;6219627;23;20082;-67
2022/11/15 04:52:19;;;;;;;63.10;23.38;;;;;;;;;;6219156;23;20016;-67
2022/11/15 04:54:45;;;;;;;62.50;24.33;;;;;;;;;;6219612;23;20023;-67
2022/11/15 04:57:11;;;;;;;64.47;23.33;;;;;;;;;;6246637;23;20107;-67
2022/11/15 04:59:37;;;;;;;66.85;24.65;;;;;;;;;;6246464;23;20012;-67
2022/11/15 05:02:03;;;;;;;60.05;22.40;;;;;;;;;;6194536;23;20027;-67
2022/11/15 05:04:29;;;;;;;64.45;24.70;;;;;;;;;;6194479;23;20051;-67
2022/11/15 05:06:55;;;;;;;69.80;24.42;;;;;;;;;;6219484;23;20023;-67
2022/11/15 05:09:22;;;;;;;68.97;23.95;;;;;;;;;;6245832;22;20019;-67
2022/11/15 05:11:48;;;;;;;64.53;23.90;;;;;;;;;;6219529;23;20016;-67
2022/11/15 05:14:15;;;;;;;72.55;23.15;;;;;;;;;;6219380;23;20016;-67
2022/11/15 05:16:41;;;;;;;68.00;24.10;;;;;;;;;;6219293;23;20016;-67
2022/11/15 05:19:07;;;;;;;66.93;24.23;;;;;;;;;;6219176;23;20165;-67
2022/11/15 05:21:33;;;;;;;72.25;24.98;;;;;;;;;;6246123;23;20016;-67
2022/11/15 05:24:00;;;;;;;74.32;24.08;;;;;;;;;;6219240;23;20446;-67
2022/11/15 05:26:26;;;;;;;76.03;24.35;;;;;;;;;;6219101;23;20071;-67
2022/11/15 05:28:56;;;;;;;72.35;26.02;;;;;;;;;;6219045;23;20043;-67
2022/11/15 05:31:22;;;;;;;70.32;24.75;;;;;;;;;;6219109;23;20016;-67
2022/11/15 05:33:50;;;;;;;72.25;26.35;;;;;;;;;;6246260;23;20015;-66
2022/11/15 05:36:20;;;;;;;77.95;25.30;;;;;;;;;;6246155;23;20023;-67
2022/11/15 05:38:47;;;;;;;74.80;25.73;;;;;;;;;;6246339;23;20012;-67
2022/11/15 05:41:13;;;;;;;80.97;26.67;;;;;;;;;;6219191;23;20019;-67
2022/11/15 05:43:40;;;;;;;86.30;26.00;;;;;;;;;;6219183;23;20020;-67
2022/11/15 05:46:07;;;;;;;72.07;26.00;;;;;;;;;;6218869;23;20020;-67
2022/11/15 05:48:34;;;;;;;79.03;27.83;;;;;;;;;;6218857;23;20020;-67
2022/11/15 05:51:01;;;;;;;82.28;26.92;;;;;;;;;;6219017;23;20066;-66
2022/11/15 05:53:27;;;;;;;91.68;27.67;;;;;;;;;;6193834;23;20012;-66
2022/11/15 05:55:53;;;;;;;75.13;27.70;;;;;;;;;;6218895;23;20438;-67
2022/11/15 05:58:20;;;;;;;84.95;27.40;;;;;;;;;;6218448;23;20016;-67
2022/11/15 06:00:46;;;;;;;85.60;28.05;;;;;;;;;;6193149;23;20027;-67
2022/11/15 06:03:14;;;;;;;77.70;28.77;;;;;;;;;;6218490;23;20077;-67
2022/11/15 06:05:40;;;;;;;80.68;29.52;;;;;;;;;;6245731;23;20016;-67
2022/11/15 06:08:06;;;;;;;77.53;27.30;;;;;;;;;;6245311;22;20465;-67
2022/11/15 06:10:33;;;;;;;76.72;28.67;;;;;;;;;;6219044;23;20023;-67
2022/11/15 06:13:00;;;;;;;78.00;27.92;;;;;;;;;;6245670;23;20339;-67
2022/11/15 06:15:26;;;;;;;72.60;26.25;;;;;;;;;;6245785;23;20990;-67
2022/11/15 06:17:52;;;;;;;70.07;28.25;;;;;;;;;;6218717;23;20393;-67
2022/11/15 06:20:18;;;;;;;71.32;28.17;;;;;;;;;;6218983;23;20069;-66
2022/11/15 06:22:44;;;;;;;80.50;28.30;;;;;;;;;;6245521;23;20367;-66
2022/11/15 06:25:10;;;;;;;72.72;27.10;;;;;;;;;;6218415;23;20024;-66
2022/11/15 06:27:36;;;;;;;72.03;27.55;;;;;;;;;;6219011;23;20123;-66
2022/11/15 06:30:02;;;;;;;77.78;28.15;;;;;;;;;;6219169;23;20434;-67
2022/11/15 06:32:30;;;;;;;76.97;28.73;;;;;;;;;;6219183;23;20094;-66
2022/11/15 06:34:56;;;;;;;77.65;29.83;;;;;;;;;;6194108;23;20018;-67
2022/11/15 06:37:22;;;;;;;78.05;28.23;;;;;;;;;;6219113;23;20012;-66
2022/11/15 06:39:48;;;;;;;75.43;28.52;;;;;;;;;;6221345;23;20047;-65
2022/11/15 06:42:14;;;;;;;76.40;29.13;;;;;;;;;;6226120;23;20043;-67
2022/11/15 06:44:40;;;;;;;76.18;29.23;;;;;;;;;;6219811;23;20019;-66
2022/11/15 06:47:06;;;;;;;71.82;27.27;;;;;;;;;;6219465;23;20016;-66
2022/11/15 06:49:32;;;;;;;83.40;29.48;;;;;;;;;;6245554;23;20047;-66
2022/11/15 06:51:58;;;;;;;74.75;29.70;;;;;;;;;;6218859;23;20008;-66
2022/11/15 06:54:24;;;;;;;71.13;27.70;;;;;;;;;;6193541;23;20023;-66
2022/11/15 06:56:50;;;;;;;75.97;28.38;;;;;;;;;;6218478;23;20016;-66
2022/11/15 06:59:16;;;;;;;70.68;27.92;;;;;;;;;;6217864;23;20095;-66
2022/11/15 07:01:43;;;;;;;74.20;28.35;;;;;;;;;;6218076;23;20024;-66
2022/11/15 07:04:09;;;;;;;85.50;30.30;;;;;;;;;;6217407;23;20020;-66
2022/11/15 07:06:35;;;;;;;87.45;30.55;;;;;;;;;;6218915;23;20020;-66
2022/11/15 07:09:02;;;;;;;79.35;31.50;;;;;;;;;;6245599;22;20078;-66
2022/11/15 07:11:28;;;;;;;90.30;31.10;;;;;;;;;;6218718;23;20446;-67
2022/11/15 07:13:54;;;;;;;88.03;30.08;;;;;;;;;;6218667;23;20095;-66
2022/11/15 07:16:20;;;;;;;99.72;32.25;;;;;;;;;;6246608;23;20008;-66
2022/11/15 07:18:47;;;;;;;90.38;32.10;;;;;;;;;;6220011;23;20083;-66
2022/11/15 07:21:13;;;;;;;91.88;32.80;;;;;;;;;;6195749;23;20020;-66
2022/11/15 07:23:39;;;;;;;96.32;32.88;;;;;;;;;;6247675;23;20012;-66
2022/11/15 07:26:06;;;;;;;89.20;32.90;;;;;;;;;;6247266;23;20024;-65
2022/11/15 07:28:32;;;;;;;95.38;30.55;;;;;;;;;;6220834;23;20450;-66
2022/11/15 07:30:58;;;;;;;80.40;30.70;;;;;;;;;;6247790;23;20059;-66
2022/11/15 07:33:24;;;;;;;89.50;32.85;;;;;;;;;;6247686;23;20012;-65
2022/11/15 07:35:50;;;;;;;92.22;33.35;;;;;;;;;;6247837;23;20016;-65
2022/11/15 07:38:20;;;;;;;87.53;32.25;;;;;;;;;;6220005;23;20016;-65
2022/11/15 07:40:46;;;;;;;94.50;33.45;;;;;;;;;;6219382;23;20062;-66
2022/11/15 07:43:12;;;;;;;92.03;32.17;;;;;;;;;;6245708;23;20012;-66
2022/11/15 07:45:45;;;;;;;84.20;31.60;;;;;;;;;;6218433;23;20450;-65
2022/11/15 07:48:11;;;;;;;94.03;31.17;;;;;;;;;;6218629;23;20328;-66
2022/11/15 07:50:37;;;;;;;102.10;32.90;;;;;;;;;;6218536;23;20087;-66
2022/11/15 07:53:03;;;;;;;83.47;32.33;;;;;;;;;;6245091;23;20487;-65
2022/11/15 07:55:29;;;;;;;88.43;31.98;;;;;;;;;;6218250;23;20012;-66
2022/11/15 07:58:06;;;;;;;93.03;33.33;;;;;;;;;;6218305;23;20087;-65
2022/11/15 08:00:32;;;;;;;78.57;29.55;;;;;;;;;;6218805;23;20020;-66
2022/11/15 08:03:02;;;;;;;74.10;30.08;;;;;;;;;;6218602;23;20020;-66
2022/11/15 08:05:28;;;;;;;76.10;30.98;;;;;;;;;;6219357;23;20020;-68
2022/11/15 08:07:56;;;;;;;85.18;30.02;;;;;;;;;;6245751;22;20320;-68
2022/11/15 08:10:22;;;;;;;79.80;29.73;;;;;;;;;;6245166;23;20016;-68
2022/11/15 08:12:48;;;;;;;77.45;29.75;;;;;;;;;;6218034;23;20016;-68
2022/11/15 08:15:14;;;;;;;72.97;29.88;;;;;;;;;;6217987;23;20094;-69
2022/11/15 08:17:40;;;;;;;84.22;31.58;;;;;;;;;;6244637;23;20142;-68
2022/11/15 08:20:06;;;;;;;73.55;29.13;;;;;;;;;;6217975;23;20020;-68
2022/11/15 08:22:34;;;;;;;62.28;27.92;;;;;;;;;;6218118;23;20026;-68
2022/11/15 08:25:00;;;;;;;73.80;29.13;;;;;;;;;;6244806;23;20060;-73
2022/11/15 08:27:26;;;;;;;66.93;28.35;;;;;;;;;;6191308;23;20335;-69
2022/11/15 08:29:52;;;;;;;72.85;30.55;;;;;;;;;;6217876;23;20077;-68
2022/11/15 08:32:18;;;;;;;66.15;29.27;;;;;;;;;;6217513;23;20123;-69
2022/11/15 08:34:44;;;;;;;68.85;29.02;;;;;;;;;;6245263;23;20018;-69
2022/11/15 08:37:13;;;;;;;66.22;28.75;;;;;;;;;;6243513;23;20019;-69
2022/11/15 08:39:39;;;;;;;61.28;28.00;;;;;;;;;;6217548;23;20028;-69
2022/11/15 08:42:05;;;;;;;71.63;27.95;;;;;;;;;;6244024;23;20016;-69
2022/11/15 08:44:31;;;;;;;66.70;29.75;;;;;;;;;;6217445;23;20023;-68
2022/11/15 08:46:57;;;;;;;61.95;28.88;;;;;;;;;;6217293;23;20012;-69
2022/11/15 08:49:23;;;;;;;60.75;27.80;;;;;;;;;;6244034;23;20055;-68
2022/11/15 08:51:49;;;;;;;60.70;27.98;;;;;;;;;;6216779;23;20069;-68
2022/11/15 08:54:16;;;;;;;63.92;28.40;;;;;;;;;;6217785;23;20039;-69
2022/11/15 08:56:42;;;;;;;62.47;29.20;;;;;;;;;;6217223;23;20016;-69
2022/11/15 08:59:08;;;;;;;55.22;27.13;;;;;;;;;;6217117;23;20020;-69
2022/11/15 09:01:34;;;;;;;61.10;29.38;;;;;;;;;;6217810;23;20055;-68
2022/11/15 09:04:00;;;;;;;70.60;28.10;;;;;;;;;;6217788;23;20023;-68
2022/11/15 09:06:26;;;;;;;58.60;28.00;;;;;;;;;;6217839;23;20099;-68
2022/11/15 09:08:52;;;;;;;57.80;26.88;;;;;;;;;;6243469;22;20347;-68
2022/11/15 09:11:21;;;;;;;63.90;28.33;;;;;;;;;;6216989;23;20016;-69
2022/11/15 09:13:47;;;;;;;54.40;26.05;;;;;;;;;;6216735;23;20020;-69
2022/11/15 09:16:15;;;;;;;66.40;27.35;;;;;;;;;;6216822;23;20024;-68
2022/11/15 09:18:41;;;;;;;56.53;27.00;;;;;;;;;;6243337;23;20019;-68
2022/11/15 09:21:07;;;;;;;54.30;26.52;;;;;;;;;;6216730;23;20309;-68
2022/11/15 09:23:33;;;;;;;52.25;25.33;;;;;;;;;;6243942;23;20438;-68
2022/11/15 09:26:01;;;;;;;63.88;27.25;;;;;;;;;;6243407;23;20103;-69
2022/11/15 09:28:27;;;;;;;51.70;26.35;;;;;;;;;;6243414;23;20016;-69
2022/11/15 09:31:04;;;;;;;52.40;25.98;;;;;;;;;;6244385;23;20096;-69
2022/11/15 09:33:30;;;;;;;58.45;26.33;;;;;;;;;;6217827;23;20044;-69
2022/11/15 09:36:04;;;;;;;55.28;27.58;;;;;;;;;;6245752;23;20047;-69
2022/11/15 09:38:30;;;;;;;57.33;25.15;;;;;;;;;;6245383;23;20149;-68
2022/11/15 09:41:19;;;;;;;51.47;26.33;;;;;;;;;;6219126;23;20435;-68
2022/11/15 09:44:03;;;;;;;61.00;25.25;;;;;;;;;;6203360;23;20027;-68
2022/11/15 09:46:50;;;;;;;48.10;24.10;;;;;;;;;;6216414;23;20053;-69
2022/11/15 09:49:17;;;;;;;53.22;23.33;;;;;;;;;;6244530;23;20378;-68
2022/11/15 09:51:48;;;;;;;53.13;25.55;;;;;;;;;;6219084;23;20028;-69
2022/11/15 09:54:31;;;;;;;44.83;23.23;;;;;;;;;;6218914;23;20020;-69
2022/11/15 09:57:18;;;;;;;50.45;24.00;;;;;;;;;;6218801;23;20012;-69
2022/11/15 10:00:03;;;;;;;46.92;24.65;;;;;;;;;;6199207;23;20020;-69
2022/11/15 10:02:32;;;;;;;47.03;25.48;;;;;;;;;;6218974;23;20027;-68
2022/11/15 10:04:59;;;;;;;48.83;25.02;;;;;;;;;;6193861;23;20350;-68
2022/11/15 10:07:34;;;;;;;56.50;25.45;;;;;;;;;;6245823;23;20013;-68
2022/11/15 10:10:15;;;;;;;45.92;23.75;;;;;;;;;;6218909;23;20019;-68
2022/11/15 10:12:45;;;;;;;49.03;24.45;;;;;;;;;;6218793;23;20008;-68
2022/11/15 10:15:13;;;;;;;49.47;25.10;;;;;;;;;;6245362;23;20353;-68
2022/11/15 10:17:57;;;;;;;46.55;24.23;;;;;;;;;;6218872;23;20032;-68
2022/11/15 10:20:26;;;;;;;45.88;24.65;;;;;;;;;;6219026;23;20016;-68
2022/11/15 10:23:02;;;;;;;53.20;24.48;;;;;;;;;;6218777;23;20358;-68
2022/11/15 10:25:29;;;;;;;51.65;23.92;;;;;;;;;;6218651;23;20027;-68
2022/11/15 10:28:00;;;;;;;48.70;24.80;;;;;;;;;;6218530;23;20051;-68
2022/11/15 10:30:33;;;;;;;45.95;24.52;;;;;;;;;;6218668;23;20097;-68
2022/11/15 10:33:09;;;;;;;46.33;23.40;;;;;;;;;;6218508;23;20016;-68
2022/11/15 10:35:35;;;;;;;41.00;22.63;;;;;;;;;;6245606;23;20022;-68
2022/11/15 10:38:09;;;;;;;50.17;23.77;;;;;;;;;;6218661;23;20081;-68
2022/11/15 10:40:35;;;;;;;46.45;23.10;;;;;;;;;;6218748;23;20020;-68
2022/11/15 10:43:19;;;;;;;45.67;23.17;;;;;;;;;;6193418;23;20047;-68
2022/11/15 10:45:46;;;;;;;46.65;23.15;;;;;;;;;;6193945;23;20016;-66
2022/11/15 10:48:12;;;;;;;45.97;22.70;;;;;;;;;;6218501;23;20051;-66
2022/11/15 10:50:39;;;;;;;42.85;22.10;;;;;;;;;;6217903;23;20012;-66
2022/11/15 10:53:13;;;;;;;44.58;22.05;;;;;;;;;;6245465;23;20019;-66
2022/11/15 10:55:41;;;;;;;42.70;22.20;;;;;;;;;;6218379;23;20015;-66
2022/11/15 10:58:20;;;;;;;49.17;23.15;;;;;;;;;;6218370;23;20016;-66
2022/11/15 11:00:46;;;;;;;42.55;21.45;;;;;;;;;;6218168;23;20123;-68
2022/11/15 11:03:35;;;;;;;41.70;21.75;;;;;;;;;;6193534;23;20020;-68
2022/11/15 11:06:09;;;;;;;38.22;21.48;;;;;;;;;;6244853;23;20035;-68
2022/11/15 11:08:36;;;;;;;42.55;21.48;;;;;;;;;;6218179;23;20020;-68
2022/11/15 11:11:03;;;;;;;39.05;20.58;;;;;;;;;;6218107;23;20048;-68
2022/11/15 11:13:32;;;;;;;35.70;20.05;;;;;;;;;;6217793;23;20465;-68
2022/11/15 11:16:01;;;;;;;36.80;20.77;;;;;;;;;;6217504;23;20044;-69
2022/11/15 11:18:33;;;;;;;37.33;19.38;;;;;;;;;;6217722;23;20454;-67
2022/11/15 11:21:01;;;;;;;36.10;19.25;;;;;;;;;;6217711;23;20390;-68
2022/11/15 11:23:27;;;;;;;39.35;19.65;;;;;;;;;;6244815;23;20016;-68
2022/11/15 11:26:03;;;;;;;36.42;18.10;;;;;;;;;;6217787;23;20020;-68
2022/11/15 11:28:32;;;;;;;35.45;18.27;;;;;;;;;;6218666;23;20016;-67
2022/11/15 11:31:08;;;;;;;37.83;18.23;;;;;;;;;;6219177;23;20440;-68
2022/11/15 11:33:38;;;;;;;33.72;18.45;;;;;;;;;;6218417;23;20083;-68
2022/11/15 11:36:11;;;;;;;31.35;18.15;;;;;;;;;;6245096;23;20516;-68
2022/11/15 11:38:45;;;;;;;;;;;11.90;99.90;;;;;;6246059;23;20023;-69
2022/11/15 11:41:11;;;;;;;32.78;16.45;;;;;;;;;;6218644;23;19911;-72
2022/11/15 11:43:42;;;;;;;29.33;15.48;;;;;;;;;;6218580;23;20047;-69
2022/11/15 11:46:14;;;;;;;29.92;16.00;;;;;;;;;;6218344;23;20023;-69
2022/11/15 11:48:43;;;;;;;36.08;15.85;;;;;;;;;;6218259;23;20401;-68
2022/11/15 11:51:15;;;;;;;30.52;14.63;;;;;;;;;;6216783;23;20016;-69
2022/11/15 11:53:44;;;;;;;25.40;14.25;;;;;;;;;;6216441;23;20016;-69
2022/11/15 11:56:20;;;;;;;25.73;14.23;;;;;;;;;;6216941;23;20346;-70
2022/11/15 11:58:47;;;;;;;25.95;13.40;;;;;;;;;;6216664;23;20023;-69
2022/11/15 12:01:27;;;;;;;24.35;13.32;;;;;;;;;;6217483;23;20328;-69
2022/11/15 12:03:56;;;;;;;27.42;12.88;;;;;;;;;;6247324;23;20019;-69
2022/11/15 12:06:42;;;;;;;22.88;13.02;;;;;;;;;;6220153;23;20091;-69
2022/11/15 12:09:32;;;;;;;24.20;13.32;;;12.10;99.90;;;;;;6219760;23;20016;-69
2022/11/15 12:12:04;;;;;;;27.83;12.88;;;;;;;;;;6220169;23;20023;-69
2022/11/15 12:14:39;;;;;;;21.75;12.70;;;;;;;;;;6247008;23;20016;-69
2022/11/15 12:17:05;;;;;;;21.15;12.00;;;;;;;;;;6246957;23;20405;-69
2022/11/15 12:19:31;;;;;;;21.42;11.82;;;;;;;;;;6219891;23;20027;-69
2022/11/15 12:21:57;;;;;;;21.58;12.80;;;;;;;;;;6219896;23;20043;-68
2022/11/15 12:24:26;;;;;;;24.23;12.43;;;;;;;;;;6219785;23;20094;-69
2022/11/15 12:26:58;;;;;;;26.92;12.82;;;;;;;;;;6219417;23;20098;-69
2022/11/15 12:29:28;;;;;;;22.55;11.40;;;;;;;;;;6246589;23;20477;-69
2022/11/15 12:31:56;;;;;;;25.27;12.30;;;;;;;;;;6194453;23;20012;-69
2022/11/15 12:34:22;;;;;;;19.60;11.68;;;;;;;;;;6219554;23;20009;-69
2022/11/15 12:36:52;;;;;;;18.98;11.13;;;;;;;;;;6219594;23;20016;-69
2022/11/15 12:39:18;;;;;;;19.50;10.75;;;;;;;;;;6219575;23;20047;-69
2022/11/15 12:41:57;;;;;;;16.27;10.48;;;;;;;;;;6219497;23;20023;-69
2022/11/15 12:44:32;;;;;;;16.83;10.00;;;;;;;;;;6218725;23;20020;-69
2022/11/15 12:46:58;;;;;;;22.55;10.45;;;;;;;;;;6218888;23;20038;-69
2022/11/15 12:49:28;;;;;;;17.10;10.52;;;;;;;;;;6245852;23;20026;-69
2022/11/15 12:51:57;;;;;;;20.33;10.02;;;;;;;;;;6246818;23;20442;-69
2022/11/15 12:54:23;;;;;;;18.55;9.98;;;;;;;;;;6218662;23;20019;-69
2022/11/15 12:57:07;;;;;;;17.77;9.63;;;;;;;;;;6247153;23;20044;-69
2022/11/15 12:59:58;;;;;;;14.25;7.82;;;;;;;;;;6220017;23;20393;-69
2022/11/15 13:02:25;;;;;;;12.35;6.53;;;;;;;;;;6246823;23;20016;-68
2022/11/15 13:04:53;;;;;;;12.75;6.38;;;;;;;;;;6220100;23;20016;-69
2022/11/15 13:07:37;;;;;;;9.73;5.95;;;;;;;;;;6247135;23;20012;-69
2022/11/15 13:10:12;;;;;;;9.80;5.43;;;;;;;;;;6246906;23;20023;-69
2022/11/15 13:12:44;;;;;;;12.50;6.03;;;;;;;;;;6219663;23;20390;-69
2022/11/15 13:15:14;;;;;;;8.57;4.90;;;;;;;;;;6218971;23;20016;-69
2022/11/15 13:17:51;;;;;;;9.98;5.18;;;;;;;;;;6219195;23;20078;-69
2022/11/15 13:20:17;;;;;;;9.10;5.07;;;;;;;;;;6219622;23;20024;-69
2022/11/15 13:22:52;;;;;;;9.27;5.28;;;;;;;;;;6219567;23;20044;-69
2022/11/15 13:25:37;;;;;;;11.43;5.28;;;;;;;;;;6219285;23;20024;-69
2022/11/15 13:28:10;;;;;;;10.40;4.63;;;;;;;;;;6244271;23;20473;-68
2022/11/15 13:30:37;;;;;;;7.03;4.65;;;;;;;;;;6219580;23;20020;-69
2022/11/15 13:33:11;;;;;;;8.27;4.07;;;;;;;;;;6219436;23;20020;-69
2022/11/15 13:35:40;;;;;;;9.32;4.65;;;;;;;;;;6219546;23;20008;-69
2022/11/15 13:38:06;;;;;;;6.60;3.92;;;;;;;;;;6219435;23;20023;-68
2022/11/15 13:40:36;;;;;;;8.93;4.32;;;;;;;;;;6219497;23;20027;-69
2022/11/15 13:43:32;;;;;;;9.13;4.63;;;;;;;;;;6218713;23;20138;-68
2022/11/15 13:46:05;;;;;;;6.95;4.47;;;;;;;;;;6218637;23;20055;-69
2022/11/15 13:48:33;;;;;;;7.65;4.30;;;;;;;;;;6245615;23;20431;-69
2022/11/15 13:50:59;;;;;;;10.57;4.85;;;;;;;;;;6219115;23;20513;-69
2022/11/15 13:53:26;;;;;;;8.82;4.85;;;;;;;;;;6244420;23;20418;-69
2022/11/15 13:55:54;;;;;;;9.95;5.53;;;;;;;;;;6246716;23;20016;-69
2022/11/15 13:58:20;;;;;;;7.88;4.63;;;;;;;;;;6246406;23;20016;-68
2022/11/15 14:00:47;;;;;;;8.30;4.60;;;;;;;;;;6246440;23;20450;-68
2022/11/15 14:03:19;;;;;;;7.78;5.07;;;;;;;;;;6219497;23;20012;-69
2022/11/15 14:06:06;;;;;;;8.50;4.93;;;;;;;;;;6219449;23;20016;-69
2022/11/15 14:08:32;;;;;;;7.75;5.22;;;;;;;;;;6219294;23;20040;-69
2022/11/15 14:11:09;;;;;;;8.85;4.95;;;;;;;;;;6219669;23;20434;-68
2022/11/15 14:13:35;;;;;;;6.20;4.88;;;;;;;;;;6219528;23;20457;-68
2022/11/15 14:16:14;;;;;;;9.07;4.93;;;;;;;;;;6219824;23;20023;-69
2022/11/15 14:18:53;;;;;;;6.82;5.03;;;;;;;;;;6219322;23;20332;-69
2022/11/15 14:21:20;;;;;;;9.07;5.55;;;;;;;;;;6219299;23;20020;-71
2022/11/15 14:23:46;;;;;;;8.75;5.07;;;;;;;;;;6219250;23;20012;-69
2022/11/15 14:26:28;;;;;;;7.50;4.85;;;;;;;;;;6219012;23;20020;-68
2022/11/15 14:28:54;;;;;;;12.57;4.40;;;;;;;;;;6245719;23;20139;-69
2022/11/15 14:31:20;;;;;;;9.40;4.68;;;;;;;;;;6217779;23;20062;-69
2022/11/15 14:33:46;;;;;;;7.40;4.50;;;;;;;;;;6219285;23;20442;-69
2022/11/15 14:36:13;;;;;;;7.30;4.70;;;;;;;;;;6219286;23;20135;-69